sensor_id;sensor_type;location;lat;lon;timestamp;P1;durP1;ratioP1;P2;durP2;ratioP2
52796;SDS011;38666;43.348;12.584;2022-10-26T06:55:20;20.10;;;8.52;;
52796;SDS011;38666;43.348;12.584;2022-10-26T06:57:46;14.37;;;9.10;;
52796;SDS011;38666;43.348;12.584;2022-10-26T07:02:38;18.50;;;7.40;;
52796;SDS011;38666;43.348;12.584;2022-10-26T07:05:04;17.20;;;7.25;;
52796;SDS011;38666;43.348;12.584;2022-10-26T07:07:30;12.43;;;6.10;;
52796;SDS011;38666;43.348;12.584;2022-10-26T07:09:56;18.23;;;5.85;;
52796;SDS011;38666;43.348;12.584;2022-10-26T07:12:21;16.90;;;5.87;;
52796;SDS011;38666;43.348;12.584;2022-10-26T07:14:47;22.52;;;6.15;;
52796;SDS011;38666;43.348;12.584;2022-10-26T07:17:12;10.53;;;5.70;;
52796;SDS011;38666;43.348;12.584;2022-10-26T07:19:38;34.30;;;6.70;;
52796;SDS011;38666;43.348;12.584;2022-10-26T07:22:08;17.43;;;6.57;;
52796;SDS011;38666;43.348;12.584;2022-10-26T07:24:34;17.92;;;6.22;;
52796;SDS011;38666;43.348;12.584;2022-10-26T07:26:59;16.73;;;6.20;;
52796;SDS011;38666;43.348;12.584;2022-10-26T07:29:25;16.33;;;5.72;;
52796;SDS011;38666;43.348;12.584;2022-10-26T07:31:51;19.47;;;5.53;;
52796;SDS011;38666;43.348;12.584;2022-10-26T07:34:17;8.88;;;4.88;;
52796;SDS011;38666;43.348;12.584;2022-10-26T07:36:42;13.30;;;5.53;;
52796;SDS011;38666;43.348;12.584;2022-10-26T07:39:08;21.00;;;6.60;;
52796;SDS011;38666;43.348;12.584;2022-10-26T07:41:34;16.93;;;6.10;;
52796;SDS011;38666;43.348;12.584;2022-10-26T07:43:59;34.88;;;6.47;;
52796;SDS011;38666;43.348;12.584;2022-10-26T07:46:25;20.30;;;6.17;;
52796;SDS011;38666;43.348;12.584;2022-10-26T07:48:51;16.47;;;5.63;;
52796;SDS011;38666;43.348;12.584;2022-10-26T07:51:16;12.38;;;4.95;;
52796;SDS011;38666;43.348;12.584;2022-10-26T07:53:42;35.10;;;6.27;;
52796;SDS011;38666;43.348;12.584;2022-10-26T07:56:08;32.23;;;5.47;;
52796;SDS011;38666;43.348;12.584;2022-10-26T07:58:34;21.02;;;5.78;;
52796;SDS011;38666;43.348;12.584;2022-10-26T08:01:10;17.23;;;5.03;;
52796;SDS011;38666;43.348;12.584;2022-10-26T08:03:37;17.90;;;4.63;;
52796;SDS011;38666;43.348;12.584;2022-10-26T08:06:03;16.15;;;5.10;;
52796;SDS011;38666;43.348;12.584;2022-10-26T08:08:29;22.13;;;5.05;;
52796;SDS011;38666;43.348;12.584;2022-10-26T08:10:55;16.10;;;4.72;;
52796;SDS011;38666;43.348;12.584;2022-10-26T08:13:21;19.50;;;4.25;;
52796;SDS011;38666;43.348;12.584;2022-10-26T08:15:47;11.40;;;4.00;;
52796;SDS011;38666;43.348;12.584;2022-10-26T08:18:12;10.33;;;3.67;;
52796;SDS011;38666;43.348;12.584;2022-10-26T08:20:38;13.88;;;3.97;;
52796;SDS011;38666;43.348;12.584;2022-10-26T08:23:04;19.27;;;3.90;;
52796;SDS011;38666;43.348;12.584;2022-10-26T08:25:30;18.35;;;3.38;;
52796;SDS011;38666;43.348;12.584;2022-10-26T08:28:03;11.35;;;3.80;;
52796;SDS011;38666;43.348;12.584;2022-10-26T08:30:29;18.55;;;3.65;;
52796;SDS011;38666;43.348;12.584;2022-10-26T08:32:59;7.40;;;2.87;;
52796;SDS011;38666;43.348;12.584;2022-10-26T08:35:28;10.80;;;3.42;;
52796;SDS011;38666;43.348;12.584;2022-10-26T08:37:54;21.40;;;3.33;;
52796;SDS011;38666;43.348;12.584;2022-10-26T08:40:21;10.50;;;3.23;;
52796;SDS011;38666;43.348;12.584;2022-10-26T08:42:52;12.88;;;3.47;;
52796;SDS011;38666;43.348;12.584;2022-10-26T08:45:31;26.00;;;3.90;;
52796;SDS011;38666;43.348;12.584;2022-10-26T08:48:05;13.85;;;3.38;;
52796;SDS011;38666;43.348;12.584;2022-10-26T08:50:50;16.98;;;3.78;;
52796;SDS011;38666;43.348;12.584;2022-10-26T08:53:25;9.73;;;2.87;;
52796;SDS011;38666;43.348;12.584;2022-10-26T08:59:32;12.73;;;3.58;;
52796;SDS011;38666;43.348;12.584;2022-10-26T09:01:50;10.43;;;3.05;;
52796;SDS011;38666;43.348;12.584;2022-10-26T09:04:24;19.13;;;3.70;;
52796;SDS011;38666;43.348;12.584;2022-10-26T09:14:59;29.95;;;3.90;;
52796;SDS011;38666;43.348;12.584;2022-10-26T09:17:45;29.52;;;3.70;;
52796;SDS011;38666;43.348;12.584;2022-10-26T09:25:58;22.27;;;3.60;;
52796;SDS011;38666;43.348;12.584;2022-10-26T09:28:26;26.92;;;3.92;;
52796;SDS011;38666;43.348;12.584;2022-10-26T09:30:54;19.52;;;3.63;;
52796;SDS011;38666;43.348;12.584;2022-10-26T09:33:23;22.27;;;3.83;;
52796;SDS011;38666;43.348;12.584;2022-10-26T09:35:57;32.85;;;4.47;;
52796;SDS011;38666;43.348;12.584;2022-10-26T09:38:28;27.75;;;4.88;;
52796;SDS011;38666;43.348;12.584;2022-10-26T09:40:58;52.50;;;5.35;;
52796;SDS011;38666;43.348;12.584;2022-10-26T09:43:37;38.80;;;5.55;;
52796;SDS011;38666;43.348;12.584;2022-10-26T09:46:19;30.58;;;4.38;;
52796;SDS011;38666;43.348;12.584;2022-10-26T09:49:10;44.63;;;4.93;;
52796;SDS011;38666;43.348;12.584;2022-10-26T09:51:37;38.23;;;5.23;;
52796;SDS011;38666;43.348;12.584;2022-10-26T09:54:15;39.78;;;4.55;;
52796;SDS011;38666;43.348;12.584;2022-10-26T09:56:43;41.28;;;5.00;;
52796;SDS011;38666;43.348;12.584;2022-10-26T09:59:12;49.88;;;6.65;;
52796;SDS011;38666;43.348;12.584;2022-10-26T10:01:40;42.35;;;5.50;;
52796;SDS011;38666;43.348;12.584;2022-10-26T10:04:13;39.25;;;5.10;;
52796;SDS011;38666;43.348;12.584;2022-10-26T10:06:42;49.47;;;6.00;;
52796;SDS011;38666;43.348;12.584;2022-10-26T10:09:13;49.10;;;6.33;;
52796;SDS011;38666;43.348;12.584;2022-10-26T10:11:43;48.78;;;5.28;;
52796;SDS011;38666;43.348;12.584;2022-10-26T10:14:19;60.38;;;6.82;;
52796;SDS011;38666;43.348;12.584;2022-10-26T10:16:50;53.30;;;6.07;;
52796;SDS011;38666;43.348;12.584;2022-10-26T10:19:35;55.95;;;7.10;;
52796;SDS011;38666;43.348;12.584;2022-10-26T10:22:10;73.22;;;8.20;;
52796;SDS011;38666;43.348;12.584;2022-10-26T10:24:40;81.13;;;9.15;;
52796;SDS011;38666;43.348;12.584;2022-10-26T10:29:42;78.07;;;7.82;;
52796;SDS011;38666;43.348;12.584;2022-10-26T10:32:17;63.83;;;7.95;;
52796;SDS011;38666;43.348;12.584;2022-10-26T10:34:51;74.47;;;8.45;;
52796;SDS011;38666;43.348;12.584;2022-10-26T10:37:22;62.63;;;8.48;;
52796;SDS011;38666;43.348;12.584;2022-10-26T10:40:00;75.88;;;7.03;;
52796;SDS011;38666;43.348;12.584;2022-10-26T10:42:40;66.60;;;8.25;;
52796;SDS011;38666;43.348;12.584;2022-10-26T10:45:16;74.40;;;8.43;;
52796;SDS011;38666;43.348;12.584;2022-10-26T10:47:57;79.47;;;8.25;;
52796;SDS011;38666;43.348;12.584;2022-10-26T10:50:56;66.55;;;7.30;;
52796;SDS011;38666;43.348;12.584;2022-10-26T10:56:54;93.05;;;9.55;;
52796;SDS011;38666;43.348;12.584;2022-10-26T11:01:47;84.50;;;8.10;;
52796;SDS011;38666;43.348;12.584;2022-10-26T11:06:50;119.32;;;9.02;;
52796;SDS011;38666;43.348;12.584;2022-10-26T11:09:18;80.53;;;8.30;;
52796;SDS011;38666;43.348;12.584;2022-10-26T11:11:51;79.20;;;8.52;;
52796;SDS011;38666;43.348;12.584;2022-10-26T11:15:09;90.28;;;9.20;;
52796;SDS011;38666;43.348;12.584;2022-10-26T11:17:25;76.55;;;8.20;;
52796;SDS011;38666;43.348;12.584;2022-10-26T11:19:56;75.95;;;8.82;;
52796;SDS011;38666;43.348;12.584;2022-10-26T11:22:32;87.13;;;9.05;;
52796;SDS011;38666;43.348;12.584;2022-10-26T11:25:04;87.97;;;8.10;;
52796;SDS011;38666;43.348;12.584;2022-10-26T11:27:49;76.32;;;8.25;;
52796;SDS011;38666;43.348;12.584;2022-10-26T11:30:19;74.85;;;8.23;;
52796;SDS011;38666;43.348;12.584;2022-10-26T11:46:43;78.35;;;7.40;;
52796;SDS011;38666;43.348;12.584;2022-10-26T11:49:18;78.60;;;8.57;;
52796;SDS011;38666;43.348;12.584;2022-10-26T11:51:52;56.60;;;7.17;;
52796;SDS011;38666;43.348;12.584;2022-10-26T11:56:52;64.13;;;7.63;;
52796;SDS011;38666;43.348;12.584;2022-10-26T11:59:21;84.50;;;8.55;;
52796;SDS011;38666;43.348;12.584;2022-10-26T12:02:03;66.30;;;8.02;;
52796;SDS011;38666;43.348;12.584;2022-10-26T12:04:34;86.40;;;9.75;;
52796;SDS011;38666;43.348;12.584;2022-10-26T12:07:05;75.47;;;8.65;;
52796;SDS011;38666;43.348;12.584;2022-10-26T12:09:37;68.40;;;8.93;;
52796;SDS011;38666;43.348;12.584;2022-10-26T12:12:08;87.47;;;7.97;;
52796;SDS011;38666;43.348;12.584;2022-10-26T12:14:42;85.03;;;8.90;;
52796;SDS011;38666;43.348;12.584;2022-10-26T12:20:05;88.32;;;8.18;;
52796;SDS011;38666;43.348;12.584;2022-10-26T12:22:52;67.03;;;9.23;;
52796;SDS011;38666;43.348;12.584;2022-10-26T12:25:19;95.37;;;9.17;;
52796;SDS011;38666;43.348;12.584;2022-10-26T12:37:52;70.93;;;8.35;;
52796;SDS011;38666;43.348;12.584;2022-10-26T12:42:56;61.72;;;8.05;;
52796;SDS011;38666;43.348;12.584;2022-10-26T12:45:42;69.55;;;7.30;;
52796;SDS011;38666;43.348;12.584;2022-10-26T12:57:08;76.53;;;7.33;;
52796;SDS011;38666;43.348;12.584;2022-10-26T12:59:33;70.80;;;7.57;;
52796;SDS011;38666;43.348;12.584;2022-10-26T13:07:43;76.55;;;7.43;;
52796;SDS011;38666;43.348;12.584;2022-10-26T13:12:47;59.35;;;7.05;;
52796;SDS011;38666;43.348;12.584;2022-10-26T13:15:23;62.35;;;7.10;;
52796;SDS011;38666;43.348;12.584;2022-10-26T13:17:54;66.65;;;8.18;;
52796;SDS011;38666;43.348;12.584;2022-10-26T13:20:23;85.53;;;7.15;;
52796;SDS011;38666;43.348;12.584;2022-10-26T13:22:49;60.17;;;7.00;;
52796;SDS011;38666;43.348;12.584;2022-10-26T13:25:22;64.67;;;7.30;;
52796;SDS011;38666;43.348;12.584;2022-10-26T13:27:58;72.03;;;8.33;;
52796;SDS011;38666;43.348;12.584;2022-10-26T13:30:45;61.05;;;6.55;;
52796;SDS011;38666;43.348;12.584;2022-10-26T13:33:34;75.10;;;7.90;;
52796;SDS011;38666;43.348;12.584;2022-10-26T13:36:05;82.85;;;7.55;;
52796;SDS011;38666;43.348;12.584;2022-10-26T13:38:41;70.93;;;9.20;;
52796;SDS011;38666;43.348;12.584;2022-10-26T13:41:09;77.50;;;7.53;;
52796;SDS011;38666;43.348;12.584;2022-10-26T13:43:43;58.78;;;7.18;;
52796;SDS011;38666;43.348;12.584;2022-10-26T13:46:18;76.57;;;8.05;;
52796;SDS011;38666;43.348;12.584;2022-10-26T13:48:48;54.20;;;6.87;;
52796;SDS011;38666;43.348;12.584;2022-10-26T13:51:28;67.45;;;7.07;;
52796;SDS011;38666;43.348;12.584;2022-10-26T13:54:22;47.42;;;5.47;;
52796;SDS011;38666;43.348;12.584;2022-10-26T13:56:56;54.13;;;6.47;;
52796;SDS011;38666;43.348;12.584;2022-10-26T13:59:37;56.08;;;6.90;;
52796;SDS011;38666;43.348;12.584;2022-10-26T14:02:28;57.22;;;6.72;;
52796;SDS011;38666;43.348;12.584;2022-10-26T14:05:00;56.78;;;6.55;;
52796;SDS011;38666;43.348;12.584;2022-10-26T14:07:31;48.53;;;5.88;;
52796;SDS011;38666;43.348;12.584;2022-10-26T14:10:04;68.45;;;7.60;;
52796;SDS011;38666;43.348;12.584;2022-10-26T14:12:30;53.35;;;6.45;;
52796;SDS011;38666;43.348;12.584;2022-10-26T14:15:05;61.53;;;6.65;;
52796;SDS011;38666;43.348;12.584;2022-10-26T14:17:33;57.03;;;6.93;;
52796;SDS011;38666;43.348;12.584;2022-10-26T14:19:58;63.80;;;7.35;;
52796;SDS011;38666;43.348;12.584;2022-10-26T14:22:25;54.70;;;6.05;;
52796;SDS011;38666;43.348;12.584;2022-10-26T14:24:59;63.35;;;7.57;;
52796;SDS011;38666;43.348;12.584;2022-10-26T14:27:26;49.97;;;6.07;;
52796;SDS011;38666;43.348;12.584;2022-10-26T14:29:56;57.83;;;6.78;;
52796;SDS011;38666;43.348;12.584;2022-10-26T14:32:30;46.67;;;6.80;;
52796;SDS011;38666;43.348;12.584;2022-10-26T14:34:57;60.88;;;6.60;;
52796;SDS011;38666;43.348;12.584;2022-10-26T14:40:24;53.80;;;6.27;;
52796;SDS011;38666;43.348;12.584;2022-10-26T14:42:53;52.58;;;6.43;;
52796;SDS011;38666;43.348;12.584;2022-10-26T14:45:27;53.50;;;7.30;;
52796;SDS011;38666;43.348;12.584;2022-10-26T14:47:59;71.70;;;6.95;;
52796;SDS011;38666;43.348;12.584;2022-10-26T14:50:26;55.65;;;7.43;;
52796;SDS011;38666;43.348;12.584;2022-10-26T14:53:02;71.13;;;7.73;;
52796;SDS011;38666;43.348;12.584;2022-10-26T14:55:47;54.95;;;6.88;;
52796;SDS011;38666;43.348;12.584;2022-10-26T14:58:19;50.85;;;6.90;;
52796;SDS011;38666;43.348;12.584;2022-10-26T15:01:12;57.35;;;7.35;;
52796;SDS011;38666;43.348;12.584;2022-10-26T15:03:39;52.25;;;6.38;;
52796;SDS011;38666;43.348;12.584;2022-10-26T15:08:54;71.53;;;7.78;;
52796;SDS011;38666;43.348;12.584;2022-10-26T15:11:20;69.68;;;7.68;;
52796;SDS011;38666;43.348;12.584;2022-10-26T15:13:46;56.60;;;7.83;;
52796;SDS011;38666;43.348;12.584;2022-10-26T15:16:16;86.97;;;8.17;;
52796;SDS011;38666;43.348;12.584;2022-10-26T15:18:42;70.07;;;7.35;;
52796;SDS011;38666;43.348;12.584;2022-10-26T15:23:41;69.93;;;8.07;;
52796;SDS011;38666;43.348;12.584;2022-10-26T15:26:08;96.77;;;8.67;;
52796;SDS011;38666;43.348;12.584;2022-10-26T15:31:44;67.82;;;7.63;;
52796;SDS011;38666;43.348;12.584;2022-10-26T15:36:17;82.63;;;8.57;;
52796;SDS011;38666;43.348;12.584;2022-10-26T15:38:45;78.83;;;8.80;;
52796;SDS011;38666;43.348;12.584;2022-10-26T15:41:13;71.57;;;7.75;;
52796;SDS011;38666;43.348;12.584;2022-10-26T15:43:39;57.10;;;6.80;;
52796;SDS011;38666;43.348;12.584;2022-10-26T15:46:04;74.77;;;7.17;;
52796;SDS011;38666;43.348;12.584;2022-10-26T15:48:30;61.63;;;7.00;;
52796;SDS011;38666;43.348;12.584;2022-10-26T15:50:58;78.38;;;7.88;;
52796;SDS011;38666;43.348;12.584;2022-10-26T15:53:24;63.28;;;7.53;;
52796;SDS011;38666;43.348;12.584;2022-10-26T15:55:55;58.60;;;7.38;;
52796;SDS011;38666;43.348;12.584;2022-10-26T15:58:22;60.20;;;7.37;;
52796;SDS011;38666;43.348;12.584;2022-10-26T16:00:48;75.78;;;7.43;;
52796;SDS011;38666;43.348;12.584;2022-10-26T16:03:24;57.30;;;7.07;;
52796;SDS011;38666;43.348;12.584;2022-10-26T16:05:52;52.05;;;6.57;;
52796;SDS011;38666;43.348;12.584;2022-10-26T16:08:22;43.53;;;6.35;;
52796;SDS011;38666;43.348;12.584;2022-10-26T16:10:48;61.65;;;7.22;;
52796;SDS011;38666;43.348;12.584;2022-10-26T16:13:15;84.50;;;7.80;;
52796;SDS011;38666;43.348;12.584;2022-10-26T16:15:41;65.10;;;7.80;;
52796;SDS011;38666;43.348;12.584;2022-10-26T16:18:07;72.38;;;7.05;;
52796;SDS011;38666;43.348;12.584;2022-10-26T16:20:32;45.30;;;6.50;;
52796;SDS011;38666;43.348;12.584;2022-10-26T16:22:58;77.03;;;8.75;;
52796;SDS011;38666;43.348;12.584;2022-10-26T16:25:30;51.93;;;7.13;;
52796;SDS011;38666;43.348;12.584;2022-10-26T16:27:55;70.30;;;7.38;;
52796;SDS011;38666;43.348;12.584;2022-10-26T16:30:21;63.07;;;7.40;;
52796;SDS011;38666;43.348;12.584;2022-10-26T16:32:47;60.40;;;7.70;;
52796;SDS011;38666;43.348;12.584;2022-10-26T16:35:12;58.00;;;7.10;;
52796;SDS011;38666;43.348;12.584;2022-10-26T16:37:38;46.83;;;6.63;;
52796;SDS011;38666;43.348;12.584;2022-10-26T16:40:04;49.90;;;6.83;;
52796;SDS011;38666;43.348;12.584;2022-10-26T16:42:30;49.00;;;7.20;;
52796;SDS011;38666;43.348;12.584;2022-10-26T16:44:56;82.73;;;7.77;;
52796;SDS011;38666;43.348;12.584;2022-10-26T16:47:22;60.47;;;6.67;;
52796;SDS011;38666;43.348;12.584;2022-10-26T16:49:48;69.07;;;6.78;;
52796;SDS011;38666;43.348;12.584;2022-10-26T16:52:14;65.17;;;7.53;;
52796;SDS011;38666;43.348;12.584;2022-10-26T16:54:39;54.50;;;7.03;;
52796;SDS011;38666;43.348;12.584;2022-10-26T16:57:05;55.78;;;6.35;;
52796;SDS011;38666;43.348;12.584;2022-10-26T16:59:30;61.00;;;8.03;;
52796;SDS011;38666;43.348;12.584;2022-10-26T17:01:56;62.43;;;7.27;;
52796;SDS011;38666;43.348;12.584;2022-10-26T17:04:21;58.17;;;6.93;;
52796;SDS011;38666;43.348;12.584;2022-10-26T17:06:47;51.33;;;7.57;;
52796;SDS011;38666;43.348;12.584;2022-10-26T17:09:12;73.50;;;7.90;;
52796;SDS011;38666;43.348;12.584;2022-10-26T17:11:38;49.27;;;7.10;;
52796;SDS011;38666;43.348;12.584;2022-10-26T17:14:03;68.93;;;7.50;;
52796;SDS011;38666;43.348;12.584;2022-10-26T17:16:28;53.72;;;7.55;;
52796;SDS011;38666;43.348;12.584;2022-10-26T17:18:54;52.90;;;6.38;;
52796;SDS011;38666;43.348;12.584;2022-10-26T17:21:26;51.73;;;6.77;;
52796;SDS011;38666;43.348;12.584;2022-10-26T17:23:54;74.00;;;8.63;;
52796;SDS011;38666;43.348;12.584;2022-10-26T17:26:19;46.53;;;6.23;;
52796;SDS011;38666;43.348;12.584;2022-10-26T17:28:49;83.00;;;6.70;;
52796;SDS011;38666;43.348;12.584;2022-10-26T17:31:15;68.57;;;7.40;;
52796;SDS011;38666;43.348;12.584;2022-10-26T17:33:41;62.90;;;6.88;;
52796;SDS011;38666;43.348;12.584;2022-10-26T17:36:09;60.28;;;7.05;;
52796;SDS011;38666;43.348;12.584;2022-10-26T17:38:38;60.15;;;6.68;;
52796;SDS011;38666;43.348;12.584;2022-10-26T17:41:06;69.45;;;7.15;;
52796;SDS011;38666;43.348;12.584;2022-10-26T17:43:34;48.17;;;6.93;;
52796;SDS011;38666;43.348;12.584;2022-10-26T17:46:01;50.67;;;7.47;;
52796;SDS011;38666;43.348;12.584;2022-10-26T17:48:29;49.90;;;6.93;;
52796;SDS011;38666;43.348;12.584;2022-10-26T17:50:59;65.78;;;6.88;;
52796;SDS011;38666;43.348;12.584;2022-10-26T17:53:26;50.93;;;6.60;;
52796;SDS011;38666;43.348;12.584;2022-10-26T17:56:02;52.53;;;6.73;;
52796;SDS011;38666;43.348;12.584;2022-10-26T17:58:30;60.80;;;7.72;;
52796;SDS011;38666;43.348;12.584;2022-10-26T18:01:00;75.88;;;14.43;;
52796;SDS011;38666;43.348;12.584;2022-10-26T18:03:28;87.93;;;14.65;;
52796;SDS011;38666;43.348;12.584;2022-10-26T18:05:53;77.15;;;14.30;;
52796;SDS011;38666;43.348;12.584;2022-10-26T18:08:19;59.70;;;14.33;;
52796;SDS011;38666;43.348;12.584;2022-10-26T18:10:48;64.87;;;13.03;;
52796;SDS011;38666;43.348;12.584;2022-10-26T18:13:14;82.60;;;13.77;;
52796;SDS011;38666;43.348;12.584;2022-10-26T18:15:40;67.83;;;12.73;;
52796;SDS011;38666;43.348;12.584;2022-10-26T18:18:06;62.60;;;11.40;;
52796;SDS011;38666;43.348;12.584;2022-10-26T18:20:32;40.05;;;7.25;;
52796;SDS011;38666;43.348;12.584;2022-10-26T18:22:58;49.63;;;6.47;;
52796;SDS011;38666;43.348;12.584;2022-10-26T18:25:23;49.97;;;7.97;;
52796;SDS011;38666;43.348;12.584;2022-10-26T18:27:49;56.00;;;6.30;;
52796;SDS011;38666;43.348;12.584;2022-10-26T18:30:15;73.60;;;11.20;;
52796;SDS011;38666;43.348;12.584;2022-10-26T18:32:40;64.00;;;11.80;;
52796;SDS011;38666;43.348;12.584;2022-10-26T18:35:06;54.70;;;10.83;;
52796;SDS011;38666;43.348;12.584;2022-10-26T18:37:32;51.58;;;9.80;;
52796;SDS011;38666;43.348;12.584;2022-10-26T18:39:57;81.40;;;12.03;;
52796;SDS011;38666;43.348;12.584;2022-10-26T18:42:22;60.73;;;11.10;;
52796;SDS011;38666;43.348;12.584;2022-10-26T18:44:48;70.87;;;12.20;;
52796;SDS011;38666;43.348;12.584;2022-10-26T18:47:13;46.20;;;10.13;;
52796;SDS011;38666;43.348;12.584;2022-10-26T18:49:39;63.47;;;9.70;;
52796;SDS011;38666;43.348;12.584;2022-10-26T18:52:06;56.37;;;10.17;;
